createdAt,value
2022-10-21T00:00:58.812Z,58.71
2022-10-21T00:06:00.933Z,59.61
2022-10-21T00:11:06.017Z,61.32
2022-10-21T00:16:12.069Z,61.79
2022-10-21T00:21:21.177Z,61.26
2022-10-21T00:26:23.404Z,61.60
2022-10-21T00:31:25.756Z,61.18
2022-10-21T00:36:27.757Z,60.73
2022-10-21T00:41:29.828Z,61.15
2022-10-21T00:46:47.367Z,61.54
2022-10-21T00:51:53.134Z,61.33
2022-10-21T00:56:56.527Z,61.05
2022-10-21T01:01:58.587Z,61.47
2022-10-21T01:07:02.494Z,60.34
2022-10-21T01:12:09.649Z,60.33
2022-10-21T01:17:43.599Z,60.96
2022-10-21T01:23:17.441Z,60.72
2022-10-21T01:28:48.502Z,60.55
2022-10-21T01:33:59.017Z,60.53
2022-10-21T01:39:10.160Z,59.51
2022-10-21T01:44:27.317Z,60.75
2022-10-21T01:49:55.355Z,59.64
2022-10-21T01:55:04.389Z,59.03
2022-10-21T02:00:07.097Z,59.28
2022-10-21T02:05:21.727Z,60.56
2022-10-21T02:10:35.648Z,61.01
2022-10-21T02:15:39.466Z,59.82
2022-10-21T02:20:43.240Z,59.28
2022-10-21T02:25:47.880Z,58.93
2022-10-21T02:30:59.547Z,59.93
2022-10-21T02:36:43.264Z,59.45
2022-10-21T02:41:47.971Z,58.55
2022-10-21T02:46:50.804Z,58.66
2022-10-21T02:51:53.481Z,59.16
2022-10-21T02:56:55.620Z,59.19
2022-10-21T03:01:57.552Z,59.32
2022-10-21T03:06:59.684Z,57.90
2022-10-21T03:12:01.680Z,57.43
2022-10-21T03:17:03.610Z,57.74
2022-10-21T03:22:05.583Z,56.93
2022-10-21T03:27:07.557Z,56.49
2022-10-21T03:32:09.485Z,56.50
2022-10-21T03:37:11.413Z,55.91
2022-10-21T03:42:13.372Z,56.04
2022-10-21T03:47:15.601Z,55.85
2022-10-21T03:52:19.448Z,55.49
2022-10-21T03:57:21.613Z,54.83
2022-10-21T04:02:23.560Z,54.75
2022-10-21T04:07:25.709Z,55.18
2022-10-21T04:12:27.675Z,55.40
2022-10-21T04:17:29.581Z,55.27
2022-10-21T04:22:31.730Z,54.06
2022-10-21T04:27:33.658Z,54.55
2022-10-21T04:32:36.051Z,53.93
2022-10-21T04:37:40.221Z,54.10
2022-10-21T04:42:42.609Z,52.23
2022-10-21T04:47:44.721Z,52.24
2022-10-21T04:52:46.735Z,51.94
2022-10-21T04:57:48.984Z,50.48
2022-10-21T05:02:51.135Z,50.72
2022-10-21T05:07:53.073Z,50.08
2022-10-21T05:12:55.062Z,48.85
2022-10-21T05:17:56.971Z,47.67
2022-10-21T05:22:58.994Z,47.19
2022-10-21T05:28:00.990Z,46.60
2022-10-21T05:33:03.302Z,46.38
2022-10-21T05:38:05.485Z,47.46
2022-10-21T05:43:07.576Z,46.33
2022-10-21T05:48:09.593Z,45.42
2022-10-21T05:53:12.200Z,45.10
2022-10-21T05:58:14.424Z,45.58
2022-10-21T06:03:16.420Z,43.66
2022-10-21T06:08:18.598Z,42.96
2022-10-21T06:13:20.540Z,43.83
2022-10-21T06:18:22.559Z,42.07
2022-10-21T06:23:25.042Z,42.49
2022-10-21T06:28:28.709Z,43.65
2022-10-21T06:33:30.780Z,43.96
2022-10-21T06:38:33.728Z,43.39
2022-10-21T06:43:35.820Z,43.42
2022-10-21T06:48:38.145Z,43.81
2022-10-21T06:53:40.173Z,42.99
2022-10-21T06:58:46.221Z,43.77
2022-10-21T07:03:48.276Z,42.65
2022-10-21T07:08:57.879Z,41.31
2022-10-21T07:14:04.764Z,39.85
2022-10-21T07:19:07.558Z,39.36
2022-10-21T07:24:10.439Z,39.12
2022-10-21T07:29:12.675Z,41.50
2022-10-21T07:34:14.840Z,41.80
2022-10-21T07:39:18.347Z,39.13
2022-10-21T07:44:22.763Z,37.82
2022-10-21T07:49:25.155Z,36.19
2022-10-21T07:54:27.242Z,35.34
2022-10-21T07:59:35.845Z,27.42
2022-10-21T08:04:44.604Z,25.20
2022-10-21T08:09:46.701Z,24.26
2022-10-21T08:14:48.879Z,23.37
2022-10-21T08:19:51.183Z,21.75
2022-10-21T08:24:53.180Z,22.44
2022-10-21T08:29:55.132Z,19.24
2022-10-21T08:34:57.115Z,18.08
2022-10-21T08:39:59.260Z,17.18
2022-10-21T08:45:07.402Z,17.57
2022-10-21T08:50:16.542Z,16.43
2022-10-21T08:55:30.371Z,14.33
2022-10-21T09:01:17.325Z,15.68
2022-10-21T09:06:51.318Z,14.86
2022-10-21T09:12:13.150Z,13.35
2022-10-21T09:18:02.992Z,12.04
2022-10-21T09:23:29.660Z,13.39
2022-10-21T09:28:38.695Z,12.20
2022-10-21T09:33:52.297Z,11.88
2022-10-21T09:39:03.317Z,9.65
2022-10-21T09:44:05.580Z,8.47
2022-10-21T09:49:54.734Z,10.98
2022-10-21T09:54:50.966Z,9.79
2022-10-21T09:59:58.461Z,10.78
2022-10-21T10:05:00.738Z,9.83
2022-10-21T10:10:30.834Z,8.05
2022-10-21T10:15:39.641Z,8.30
2022-10-21T10:20:41.665Z,6.86
2022-10-21T10:25:50.428Z,6.76
2022-10-21T10:30:57.112Z,9.28
2022-10-21T10:36:05.569Z,8.00
2022-10-21T10:41:17.145Z,9.11
2022-10-21T10:46:34.723Z,11.52
2022-10-21T10:51:36.820Z,13.23
2022-10-21T10:56:43.033Z,14.94
2022-10-21T11:02:02.836Z,16.32
2022-10-21T11:07:12.904Z,15.87
2022-10-21T11:12:23.598Z,14.66
2022-10-21T11:17:37.836Z,13.97
2022-10-21T11:23:17.708Z,13.49
2022-10-21T11:28:22.834Z,12.39
2022-10-21T11:33:36.415Z,13.57
2022-10-21T11:38:46.960Z,11.36
2022-10-21T11:44:13.481Z,11.30
2022-10-21T11:49:45.761Z,12.79
2022-10-21T11:55:09.950Z,11.90
2022-10-21T12:00:22.251Z,12.08
2022-10-21T12:05:36.823Z,12.48
2022-10-21T12:11:13.626Z,11.59
2022-10-21T12:16:19.779Z,11.60
2022-10-21T12:21:32.237Z,10.47
2022-10-21T12:26:45.464Z,8.83
2022-10-21T12:31:53.457Z,8.06
2022-10-21T12:36:55.961Z,5.89
2022-10-21T12:42:28.504Z,5.98
2022-10-21T12:47:32.980Z,3.46
2022-10-21T12:52:38.416Z,2.83
2022-10-21T12:57:41.796Z,4.94
2022-10-21T13:03:10.171Z,4.84
2022-10-21T13:08:27.422Z,4.51
2022-10-21T13:13:44.120Z,5.44
2022-10-21T13:18:58.071Z,5.18
2022-10-21T13:24:14.182Z,4.96
2022-10-21T13:29:36.772Z,5.81
2022-10-21T13:34:58.940Z,5.09
2022-10-21T13:40:07.495Z,4.06
2022-10-21T13:45:37.768Z,2.89
2022-10-21T13:50:42.558Z,3.73
2022-10-21T13:56:06.149Z,3.53
2022-10-21T14:01:21.926Z,3.07
2022-10-21T14:06:31.898Z,3.83
2022-10-21T14:11:41.033Z,3.97
2022-10-21T14:16:49.285Z,4.04
2022-10-21T14:21:55.228Z,4.80
2022-10-21T14:26:57.705Z,5.02
2022-10-21T14:32:01.032Z,5.15
2022-10-21T14:37:19.945Z,5.76
2022-10-21T14:42:25.008Z,5.82
2022-10-21T14:47:27.721Z,6.66
2022-10-21T14:52:44.436Z,6.63
2022-10-21T14:57:56.217Z,6.29
2022-10-21T15:03:00.266Z,7.52
2022-10-21T15:08:21.191Z,8.36
2022-10-21T15:13:24.704Z,8.59
2022-10-21T15:18:54.232Z,8.85
2022-10-21T15:23:59.226Z,8.99
2022-10-21T15:29:34.045Z,9.86
2022-10-21T15:34:36.366Z,9.99
2022-10-21T15:39:38.523Z,10.51
2022-10-21T15:44:40.740Z,11.23
2022-10-21T15:49:43.553Z,11.75
2022-10-21T15:54:45.761Z,13.96
2022-10-21T15:59:48.290Z,15.63
2022-10-21T16:04:53.113Z,14.87
2022-10-21T16:10:01.804Z,15.03
2022-10-21T16:15:11.122Z,16.05
2022-10-21T16:20:29.987Z,16.71
2022-10-21T16:25:33.582Z,17.06
2022-10-21T16:30:39.245Z,18.62
2022-10-21T16:35:41.500Z,18.37
2022-10-21T16:40:43.660Z,18.95
2022-10-21T16:45:45.814Z,20.18
2022-10-21T16:50:48.559Z,21.50
2022-10-21T16:55:53.861Z,22.13
2022-10-21T17:00:57.133Z,22.34
2022-10-21T17:05:59.355Z,21.63
2022-10-21T17:11:01.616Z,22.14
2022-10-21T17:16:03.956Z,21.89
2022-10-21T17:21:06.832Z,21.78
2022-10-21T17:26:09.184Z,21.80
2022-10-21T17:31:16.561Z,21.85
2022-10-21T17:36:19.181Z,21.69
2022-10-21T17:41:21.382Z,22.24
2022-10-21T17:46:31.645Z,23.55
2022-10-21T17:51:40.079Z,25.23
2022-10-21T17:56:43.853Z,26.78
2022-10-21T18:01:47.055Z,28.07
2022-10-21T18:06:49.489Z,29.47
2022-10-21T18:11:51.646Z,30.60
2022-10-21T18:16:53.936Z,30.99
2022-10-21T18:21:59.313Z,31.58
2022-10-21T18:27:03.361Z,31.71
2022-10-21T18:32:12.542Z,31.54
2022-10-21T18:37:16.892Z,32.15
2022-10-21T18:42:19.415Z,32.41
2022-10-21T18:47:21.666Z,31.56
2022-10-21T18:52:24.398Z,30.89
2022-10-21T18:57:27.457Z,30.13
2022-10-21T19:02:29.715Z,30.05
2022-10-21T19:07:31.993Z,29.54
2022-10-21T19:12:35.853Z,29.61
2022-10-21T19:17:39.871Z,30.21
2022-10-21T19:22:42.491Z,30.90
2022-10-21T19:27:45.971Z,29.92
2022-10-21T19:32:50.342Z,29.25
2022-10-21T19:37:59.096Z,29.22
2022-10-21T19:43:04.229Z,27.45
2022-10-21T19:48:07.359Z,26.88
2022-10-21T19:53:10.632Z,25.97
2022-10-21T19:58:13.000Z,26.91
2022-10-21T20:03:15.216Z,25.93
2022-10-21T20:08:17.736Z,25.57
2022-10-21T20:13:20.115Z,26.26
2022-10-21T20:18:26.353Z,25.26
2022-10-21T20:23:30.908Z,25.36
2022-10-21T20:28:33.231Z,24.08
2022-10-21T20:33:42.202Z,24.55
2022-10-21T20:38:45.451Z,23.56
2022-10-21T20:43:48.359Z,24.30
2022-10-21T20:48:52.122Z,25.22
2022-10-21T20:53:57.765Z,25.88
2022-10-21T20:59:00.239Z,25.74
2022-10-21T21:04:05.978Z,26.65
2022-10-21T21:09:29.410Z,26.76
2022-10-21T21:14:30.470Z,27.79
2022-10-21T21:19:32.775Z,28.34
2022-10-21T21:24:34.944Z,28.74
2022-10-21T21:29:36.978Z,29.58
2022-10-21T21:34:39.269Z,29.99
2022-10-21T21:39:41.292Z,29.24
2022-10-21T21:44:43.290Z,31.22
2022-10-21T21:49:45.366Z,30.74
2022-10-21T21:54:47.401Z,31.72
2022-10-21T21:59:49.401Z,32.38
2022-10-21T22:04:51.397Z,33.73
2022-10-21T22:09:53.385Z,34.32
2022-10-21T22:14:55.364Z,36.52
2022-10-21T22:19:57.354Z,36.69
2022-10-21T22:24:59.600Z,38.67
2022-10-21T22:30:01.954Z,40.07
2022-10-21T22:35:06.707Z,40.33
2022-10-21T22:40:09.063Z,41.23
2022-10-21T22:45:11.044Z,43.76
2022-10-21T22:50:13.750Z,45.58
2022-10-21T22:55:15.803Z,47.09
2022-10-21T23:00:17.877Z,49.66
2022-10-21T23:05:19.802Z,49.79
2022-10-21T23:10:21.797Z,50.80
2022-10-21T23:15:24.008Z,50.86
2022-10-21T23:20:26.255Z,51.79
2022-10-21T23:25:28.698Z,52.45
2022-10-21T23:30:32.128Z,53.17
2022-10-21T23:35:34.125Z,55.57
2022-10-21T23:40:36.284Z,54.08
2022-10-21T23:45:38.573Z,55.18
2022-10-21T23:50:43.827Z,55.04
2022-10-21T23:55:46.645Z,56.29
